Time;durP1;ratioP1;P1;durP2;ratioP2;P2;SDS_P1;SDS_P2;PMS_P1;PMS_P2;Temp;Humidity;BMP_temperature;BMP_pressure;BME280_temperature;BME280_humidity;BME280_pressure;Samples;Min_cycle;Max_cycle;Signal;HPM_P1;HPM_P2
2022/12/15 00:40:18;;;;;;;18.10;8.67;;;;;;;-4.01;86.42;99483.13;5054006;28;20544;-66
2022/12/15 00:42:44;;;;;;;17.30;7.93;;;;;;;-4.14;87.03;99476.41;5050794;28;20600;-66
2022/12/15 00:45:15;;;;;;;20.67;9.03;;;;;;;-4.27;87.15;99475.63;5049336;28;20964;-66
2022/12/15 00:47:41;;;;;;;19.00;9.13;;;;;;;-4.38;87.55;99480.19;5053654;28;20510;-66
2022/12/15 01:20:22;;;;;;;21.67;11.53;;;;;;;-3.98;87.42;99518.66;5056098;28;20539;-68
2022/12/15 01:22:54;;;;;;;22.13;11.80;;;;;;;-4.09;87.49;99518.03;5052799;28;20475;-67
2022/12/15 01:25:23;;;;;;;19.93;11.63;;;;;;;-4.21;87.73;99525.97;5051933;28;20456;-67
2022/12/15 01:27:50;;;;;;;23.63;11.73;;;;;;;-4.25;88.12;99525.72;5040924;28;20460;-67
2022/12/15 01:30:20;;;;;;;22.43;8.13;;;;;;;-4.40;88.53;99525.75;5054715;28;20464;-67
2022/12/15 01:32:47;;;;;;;16.07;7.33;;;;;;;-4.52;88.83;99533.63;5055781;28;20520;-66
2022/12/15 01:35:13;;;;;;;20.17;8.47;;;;;;;-4.62;89.14;99540.78;5047285;28;21062;-66
2022/12/15 01:37:39;;;;;;;20.60;8.57;;;;;;;-4.64;89.62;99543.25;5050214;28;20524;-66
2022/12/15 01:42:55;;;;;;;25.67;8.47;;;;;;;-4.65;90.29;99553.50;5053156;28;20473;-68
2022/12/15 01:45:24;;;;;;;21.27;8.30;;;;;;;-4.63;90.54;99546.72;5058374;28;20531;-66
2022/12/15 01:47:53;;;;;;;17.80;8.53;;;;;;;-4.62;90.71;99544.25;5053531;28;20544;-67
2022/12/15 01:50:21;;;;;;;17.80;8.70;;;;;;;-4.56;90.83;99554.03;5052957;28;20563;-67
2022/12/15 01:52:48;;;;;;;18.23;8.07;;;;;;;-4.52;90.47;99556.88;5052002;28;20564;-69
2022/12/15 01:55:16;;;;;;;18.00;8.17;;;;;;;-4.45;90.19;99550.38;5055629;28;20222;-66
2022/12/15 01:57:45;;;;;;;18.80;8.30;;;;;;;-4.47;90.23;99545.13;5051974;28;20906;-66
2022/12/15 02:00:13;;;;;;;18.57;8.63;;;;;;;-4.44;90.03;99550.47;5047993;28;20603;-68
2022/12/15 02:02:40;;;;;;;20.80;8.97;;;;;;;-4.39;89.68;99545.59;5043533;28;20472;-68
2022/12/15 02:05:07;;;;;;;17.67;8.27;;;;;;;-4.35;89.65;99555.31;5045308;28;20196;-67
2022/12/15 02:07:33;;;;;;;19.37;8.93;;;;;;;-4.49;89.51;99554.50;5042072;28;20235;-69
2022/12/15 02:10:03;;;;;;;19.27;8.00;;;;;;;-4.50;89.41;99573.38;5046703;28;20680;-67
2022/12/15 02:12:35;;;;;;;18.60;8.13;;;;;;;-4.54;89.57;99573.09;5050784;28;20542;-66
2022/12/15 02:15:19;;;;;;;17.10;7.57;;;;;;;-4.55;90.01;99576.50;5050380;28;20505;-66
2022/12/15 02:17:53;;;;;;;18.40;8.30;;;;;;;-4.55;90.17;99571.31;5048758;28;21251;-68
2022/12/15 02:20:25;;;;;;;16.13;8.33;;;;;;;-4.52;90.32;99576.66;5046085;28;20542;-71
2022/12/15 02:23:27;;;;;;;18.97;9.00;;;;;;;-4.38;90.36;99565.47;5048147;28;20515;-67
2022/12/15 02:26:06;;;;;;;18.63;8.60;;;;;;;-4.34;90.15;99559.69;5040511;28;20463;-68
2022/12/15 02:29:07;;;;;;;19.33;8.27;;;;;;;-4.33;89.59;99561.47;5048970;28;20503;-67
2022/12/15 02:31:49;;;;;;;18.13;7.90;;;;;;;-4.37;89.51;99554.34;5050994;28;20546;-68
2022/12/15 02:34:34;;;;;;;18.50;8.33;;;;;;;-4.23;89.17;99560.28;5047039;28;20809;-67
2022/12/15 02:37:05;;;;;;;14.63;7.80;;;;;;;-4.21;88.40;99563.84;5047184;28;20461;-66
2022/12/15 02:39:31;;;;;;;18.67;8.87;;;;;;;-4.39;88.13;99575.72;5050241;28;20457;-66
2022/12/15 02:41:58;;;;;;;24.23;8.97;;;;;;;-4.61;88.49;99569.28;5053137;28;21063;-66
2022/12/15 02:44:43;;;;;;;17.97;8.37;;;;;;;-4.72;89.04;99579.78;5051718;28;20458;-68
2022/12/15 02:47:18;;;;;;;17.63;7.80;;;;;;;-4.83;88.93;99584.25;5049208;28;20535;-69
2022/12/15 02:49:48;;;;;;;22.23;12.33;;;;;;;-4.94;89.29;99587.91;5050240;28;20537;-67
2022/12/15 02:52:55;;;;;;;18.10;8.27;;;;;;;-4.96;89.75;99592.97;5051450;28;20479;-68
2022/12/15 02:55:45;;;;;;;20.80;7.97;;;;;;;-4.95;90.10;99587.00;5040867;28;20577;-66
2022/12/15 02:58:45;;;;;;;18.73;6.97;;;;;;;-4.98;90.10;99597.16;5047010;28;20459;-68
2022/12/15 03:01:28;;;;;;;17.13;8.07;;;;;;;-5.00;90.10;99595.25;5054819;28;21062;-68
2022/12/15 03:03:57;;;;;;;26.70;13.47;;;;;;;-5.01;89.84;99591.78;5047245;28;20465;-66
2022/12/15 03:06:25;;;;;;;17.80;8.47;;;;;;;-4.86;89.50;99605.63;5050553;28;20459;-68
2022/12/15 03:08:51;;;;;;;22.23;8.43;;;;;;;-4.86;89.34;99599.56;5051386;28;20464;-69
2022/12/15 03:11:18;;;;;;;19.97;8.60;;;;;;;-4.94;89.39;99606.84;5047083;28;20545;-69
2022/12/15 03:13:44;;;;;;;22.83;13.23;;;;;;;-5.07;89.60;99609.50;5057797;28;20566;-66
2022/12/15 03:16:11;;;;;;;18.47;9.70;;;;;;;-5.22;89.78;99599.09;5050598;28;21056;-66
2022/12/15 03:18:37;;;;;;;22.73;12.43;;;;;;;-5.35;89.68;99606.88;5052328;28;20548;-66
2022/12/15 03:21:03;;;;;;;25.07;13.90;;;;;;;-5.49;90.05;99613.75;5052771;28;20467;-66
2022/12/15 03:23:30;;;;;;;21.07;12.37;;;;;;;-5.63;90.18;99608.47;5052562;28;21179;-67
2022/12/15 03:25:56;;;;;;;21.80;8.80;;;;;;;-5.69;90.38;99619.31;5045070;28;20519;-68
2022/12/15 03:28:23;;;;;;;24.40;12.70;;;;;;;-5.75;90.98;99619.81;5055384;28;20460;-67
2022/12/15 03:30:49;;;;;;;15.50;7.80;;;;;;;-5.83;90.90;99631.31;5053807;28;20464;-67
2022/12/15 03:33:16;;;;;;;23.27;12.73;;;;;;;-5.80;91.36;99641.81;5052153;28;20863;-66
2022/12/15 03:35:42;;;;;;;23.43;12.63;;;;;;;-5.82;91.76;99637.34;5055932;28;20559;-66
2022/12/15 03:38:08;;;;;;;21.93;12.63;;;;;;;-5.83;91.89;99636.47;5053611;28;20511;-68
2022/12/15 03:40:35;;;;;;;20.77;12.30;;;;;;;-5.80;92.10;99638.34;5052997;28;20854;-67
2022/12/15 03:43:01;;;;;;;19.50;8.27;;;;;;;-5.79;92.11;99640.13;5057968;28;20515;-69
2022/12/15 03:45:28;;;;;;;18.50;8.17;;;;;;;-5.59;92.30;99638.88;5058972;28;20846;-66
2022/12/15 03:47:56;;;;;;;18.00;7.87;;;;;;;-5.55;92.22;99634.00;5058111;28;20552;-67
2022/12/15 03:50:25;;;;;;;19.93;8.47;;;;;;;-5.55;92.16;99633.09;5055564;28;20527;-66
2022/12/15 03:52:54;;;;;;;20.57;9.13;;;;;;;-5.61;92.17;99622.38;5054751;28;20477;-66
2022/12/15 03:55:21;;;;;;;19.53;8.17;;;;;;;-5.70;92.12;99631.31;5050598;28;20474;-68
2022/12/15 03:57:48;;;;;;;20.80;8.43;;;;;;;-5.76;92.02;99623.19;5053356;28;20464;-67
2022/12/15 04:00:15;;;;;;;16.93;8.07;;;;;;;-5.70;92.43;99633.00;5050646;28;20519;-66
2022/12/15 04:02:42;;;;;;;19.07;7.80;;;;;;;-5.69;92.66;99638.25;5055784;28;20514;-66
2022/12/15 04:05:15;;;;;;;20.13;7.87;;;;;;;-5.68;92.58;99639.13;5051714;28;20459;-66
2022/12/15 04:07:42;;;;;;;19.27;8.93;;;;;;;-5.65;92.68;99630.69;5052122;28;20972;-66
2022/12/15 04:10:10;;;;;;;18.73;8.90;;;;;;;-5.65;92.46;99643.59;5049040;28;20457;-69
2022/12/15 04:12:38;;;;;;;17.70;8.00;;;;;;;-5.60;92.56;99650.88;5055095;28;20484;-68
2022/12/15 04:15:06;;;;;;;22.83;8.30;;;;;;;-5.59;92.37;99644.91;5050511;28;20486;-66
2022/12/15 04:17:33;;;;;;;20.70;8.13;;;;;;;-5.61;92.29;99653.31;5050595;28;21042;-67
2022/12/15 04:20:08;;;;;;;17.37;8.17;;;;;;;-5.65;92.06;99665.13;5048496;28;20484;-67
2022/12/15 04:22:39;;;;;;;20.60;8.50;;;;;;;-5.71;92.16;99660.47;5053705;28;20509;-68
2022/12/15 05:34:04;;;;;;;17.23;7.77;;;;;;;-5.55;90.49;99684.69;5053494;28;20453;-68
2022/12/15 05:36:32;;;;;;;16.80;7.97;;;;;;;-5.40;90.07;99685.66;5032888;28;20476;-68
2022/12/15 05:38:58;;;;;;;20.70;7.20;;;;;;;-5.27;89.32;99677.91;4871251;28;20531;-67
2022/12/15 05:41:24;;;;;;;17.30;7.60;;;;;;;-5.30;89.34;99688.03;5053803;28;21067;-69
2022/12/15 05:43:50;;;;;;;15.70;7.30;;;;;;;-5.25;89.56;99693.47;5076441;28;20460;-69
2022/12/15 05:46:17;;;;;;;24.03;12.60;;;;;;;-5.22;89.77;99698.84;5069483;28;20802;-68
2022/12/15 05:48:43;;;;;;;15.80;6.97;;;;;;;-5.01;88.78;99707.06;5070578;28;20450;-67
2022/12/15 05:51:11;;;;;;;18.27;11.37;;;;;;;-4.78;87.40;99706.84;5068563;28;20533;-67
2022/12/15 05:53:39;;;;;;;22.67;12.37;;;;;;;-4.81;87.17;99707.50;5066883;28;21059;-68
2022/12/15 05:56:11;;;;;;;25.17;12.50;;;;;;;-4.65;86.59;99719.72;5064919;28;20530;-67
2022/12/15 05:58:38;;;;;;;14.90;6.93;;;;;;;-4.68;86.74;99716.03;5063726;28;20495;-68
2022/12/15 06:01:13;;;;;;;22.30;10.90;;;;;;;-4.53;86.54;99716.97;5074623;28;20537;-67
2022/12/15 06:03:40;;;;;;;21.67;11.70;;;;;;;-4.58;86.52;99706.38;5061880;28;20635;-67
2022/12/15 06:06:08;;;;;;;20.33;11.57;;;;;;;-4.61;86.48;99711.34;5067200;28;20485;-70
2022/12/15 06:08:36;;;;;;;16.37;6.37;;;;;;;-4.65;86.63;99727.44;5074199;28;20991;-67
2022/12/15 06:11:03;;;;;;;14.37;6.30;;;;;;;-4.68;85.93;99722.09;5069124;28;20467;-67
2022/12/15 06:13:33;;;;;;;14.07;7.03;;;;;;;-4.75;85.76;99722.53;5067322;28;20484;-70
2022/12/15 06:16:19;;;;;;;12.37;4.37;;;;;;;-4.85;85.77;99730.47;5066301;28;20510;-70
2022/12/15 06:18:49;;;;;;;13.47;5.97;;;;;;;-5.16;86.10;99728.53;5070230;28;20784;-68
2022/12/15 06:21:18;;;;;;;13.10;6.13;;;;;;;-5.44;86.89;99737.84;5069668;28;20487;-68
2022/12/15 06:23:46;;;;;;;14.70;6.30;;;;;;;-5.53;87.76;99743.31;5064123;28;20468;-70
2022/12/15 06:26:28;;;;;;;21.90;10.10;;;;;;;-5.74;88.49;99734.13;5067603;28;20464;-67
2022/12/15 06:28:57;;;;;;;16.87;6.07;;;;;;;-5.93;88.84;99746.66;5067601;28;20514;-67
2022/12/15 06:31:24;;;;;;;20.40;10.80;;;;;;;-6.13;89.18;99745.28;5065760;28;20540;-67
2022/12/15 06:33:52;;;;;;;22.60;10.73;;;;;;;-6.33;89.50;99751.66;5066733;28;20457;-67
2022/12/15 06:36:27;;;;;;;20.37;11.93;;;;;;;-6.47;90.08;99758.41;5062861;28;20483;-67
2022/12/15 06:38:53;;;;;;;22.63;11.53;;;;;;;-6.55;90.42;99767.28;5064986;28;20870;-68
2022/12/15 06:41:21;;;;;;;14.83;6.23;;;;;;;-6.67;90.75;99776.72;5071463;28;20524;-69
2022/12/15 06:43:49;;;;;;;14.43;6.17;;;;;;;-6.78;90.95;99762.22;5068630;28;20461;-67
2022/12/15 06:46:16;;;;;;;17.33;6.90;;;;;;;-6.89;91.19;99756.28;5064375;28;20488;-65
2022/12/15 06:48:44;;;;;;;14.23;6.57;;;;;;;-6.81;91.97;99756.81;5067545;28;20456;-66
2022/12/15 06:51:12;;;;;;;17.67;6.23;;;;;;;-6.82;92.26;99761.06;5063201;28;20893;-67
2022/12/15 06:54:05;;;;;;;15.67;7.27;;;;;;;-6.81;92.65;99764.53;5062565;28;20452;-66
2022/12/15 06:56:35;;;;;;;15.33;6.23;;;;;;;-6.79;92.88;99771.63;5060080;28;20473;-65
2022/12/15 06:59:03;;;;;;;16.40;7.90;;;;;;;-6.68;93.37;99785.25;5056109;28;20523;-69
2022/12/15 07:01:30;;;;;;;16.27;6.50;;;;;;;-6.58;93.73;99782.53;5063294;28;20476;-67
2022/12/15 07:04:01;;;;;;;13.40;6.80;;;;;;;-6.46;93.54;99783.38;5007581;28;20891;-67
2022/12/15 07:06:34;;;;;;;16.57;7.20;;;;;;;-6.36;93.88;99782.34;5008596;28;20486;-66
2022/12/15 07:09:01;;;;;;;24.80;13.00;;;;;;;-6.26;93.99;99795.06;5013176;28;20501;-66
2022/12/15 07:11:28;;;;;;;18.40;7.93;;;;;;;-6.13;94.03;99791.66;5066659;28;20480;-67
2022/12/15 07:13:54;;;;;;;15.47;7.77;;;;;;;-5.95;93.97;99786.88;5078410;28;20510;-65
2022/12/15 07:16:21;;;;;;;20.00;8.13;;;;;;;-5.75;93.29;99777.09;5070644;28;20859;-66
2022/12/15 07:18:48;;;;;;;22.60;8.67;;;;;;;-5.56;92.60;99786.06;5082520;28;20600;-66
2022/12/15 07:21:15;;;;;;;19.20;8.13;;;;;;;-5.68;91.94;99768.06;5072059;28;20488;-65
2022/12/15 07:23:42;;;;;;;23.40;8.57;;;;;;;-5.62;91.65;99783.06;5069468;28;20554;-70
2022/12/15 07:26:25;;;;;;;28.63;13.80;;;;;;;-5.70;90.71;99786.00;5067072;28;20463;-67
2022/12/15 07:28:52;;;;;;;21.60;8.40;;;;;;;-5.82;91.31;99790.34;5070403;28;20870;-67
2022/12/15 07:31:19;;;;;;;22.30;9.10;;;;;;;-5.88;90.91;99779.63;5078010;28;20469;-66
2022/12/15 07:33:47;;;;;;;21.87;8.87;;;;;;;-5.89;91.08;99779.56;5069766;28;20956;-66
2022/12/15 07:36:14;;;;;;;21.10;7.93;;;;;;;-5.94;91.51;99781.84;5057440;28;20562;-66
2022/12/15 07:38:40;;;;;;;19.90;8.37;;;;;;;-5.89;91.48;99784.72;5077472;28;20797;-67
2022/12/15 07:41:08;;;;;;;29.53;8.93;;;;;;;-5.92;91.29;99785.41;5076397;28;20457;-67
2022/12/15 07:43:34;;;;;;;21.40;8.63;;;;;;;-5.93;91.66;99793.94;5074664;28;21034;-66
2022/12/15 07:46:03;;;;;;;26.90;9.63;;;;;;;-5.91;91.71;99797.50;5072847;28;20455;-67
2022/12/15 07:48:30;;;;;;;25.93;9.97;;;;;;;-5.89;91.78;99795.91;5070346;28;20830;-68
2022/12/15 07:50:56;;;;;;;32.20;15.70;;;;;;;-5.89;91.69;99810.50;5072493;28;20965;-68
2022/12/15 07:53:33;;;;;;;38.70;17.70;;;;;;;-5.88;91.79;99812.25;5077624;28;20478;-68
2022/12/15 07:56:03;;;;;;;45.33;19.43;;;;;;;-5.85;91.98;99823.66;5065424;28;20480;-67
2022/12/15 07:58:35;;;;;;;33.03;11.27;;;;;;;-5.83;92.14;99813.47;5053933;28;20989;-68
2022/12/15 08:01:03;;;;;;;36.03;17.27;;;;;;;-5.58;92.15;99813.44;5066154;28;20456;-68
2022/12/15 08:03:31;;;;;;;26.07;10.73;;;;;;;-5.43;91.25;99811.88;5070469;28;20476;-68
2022/12/15 08:06:11;;;;;;;24.30;10.50;;;;;;;-5.39;91.16;99816.44;5072286;28;20538;-67
2022/12/15 08:08:39;;;;;;;29.37;10.50;;;;;;;-5.26;90.35;99815.56;5057674;28;20519;-66
2022/12/15 08:11:10;;;;;;;30.80;10.63;;;;;;;-5.21;90.12;99807.31;5065231;28;20984;-67
2022/12/15 08:13:38;;;;;;;27.37;10.77;;;;;;;-5.07;89.02;99810.81;5060163;28;20548;-65
2022/12/15 08:16:24;;;;;;;28.93;11.73;;;;;;;-5.13;89.27;99807.84;5041911;28;20540;-68
2022/12/15 08:18:51;;;;;;;37.90;17.57;;;;;;;-5.06;89.13;99807.44;5047303;28;20457;-66
2022/12/15 08:21:17;;;;;;;32.37;17.03;;;;;;;-4.99;89.30;99804.47;5061217;28;20467;-68
2022/12/15 08:23:44;;;;;;;27.87;10.03;;;;;;;-4.93;89.08;99797.13;5061977;28;20544;-68
2022/12/15 08:26:13;;;;;;;32.67;10.97;;;;;;;-4.83;88.08;99809.81;5065781;28;20469;-66
2022/12/15 08:28:40;;;;;;;29.93;11.20;;;;;;;-4.77;88.22;99817.09;5041106;28;20487;-67
2022/12/15 08:31:09;;;;;;;32.40;13.30;;;;;;;-4.67;88.20;99811.72;5045432;28;20492;-67
2022/12/15 08:33:37;;;;;;;33.90;13.33;;;;;;;-4.48;86.60;99817.22;5062876;28;20543;-66
2022/12/15 08:36:06;;;;;;;35.90;12.00;;;;;;;-4.44;86.33;99820.88;5061161;28;20491;-67
2022/12/15 08:38:33;;;;;;;32.60;12.23;;;;;;;-4.32;86.41;99833.72;5065966;28;20452;-68
2022/12/15 08:41:07;;;;;;;40.33;19.47;;;;;;;-4.23;86.83;99836.88;5062909;28;20543;-67
2022/12/15 08:43:34;;;;;;;26.57;10.83;;;;;;;-4.11;86.21;99835.03;5046943;28;20561;-67
2022/12/15 08:46:00;;;;;;;26.47;11.13;;;;;;;-4.08;85.78;99830.03;5059331;28;20468;-70
2022/12/15 08:48:27;;;;;;;27.80;10.80;;;;;;;-4.04;85.32;99841.47;5065689;28;20456;-69
2022/12/15 08:50:57;;;;;;;24.27;11.13;;;;;;;-4.04;85.66;99841.47;5070374;28;20459;-67
2022/12/15 08:53:25;;;;;;;26.77;11.50;;;;;;;-4.00;84.76;99831.44;5056616;28;20595;-67
2022/12/15 08:56:11;;;;;;;30.83;12.07;;;;;;;-3.94;85.24;99834.41;5068339;28;20458;-68
2022/12/15 08:58:38;;;;;;;33.07;12.63;;;;;;;-3.84;84.79;99844.50;5066253;28;20454;-68
2022/12/15 09:01:07;;;;;;;31.47;11.70;;;;;;;-3.75;84.53;99858.78;5062735;28;20461;-68
2022/12/15 09:03:34;;;;;;;24.90;10.07;;;;;;;-3.62;83.71;99867.38;5079410;28;20831;-67
2022/12/15 09:06:07;;;;;;;27.83;11.07;;;;;;;-3.64;83.44;99842.19;5070438;28;20460;-67
2022/12/15 09:08:34;;;;;;;26.40;9.73;;;;;;;-3.48;83.01;99856.19;5076773;28;20464;-67
2022/12/15 09:11:01;;;;;;;30.73;11.80;;;;;;;-3.39;82.72;99852.34;5072601;28;20530;-69
2022/12/15 09:13:28;;;;;;;32.90;15.53;;;;;;;-3.19;81.35;99850.16;5057067;28;20483;-67
2022/12/15 09:15:57;;;;;;;33.63;10.83;;;;;;;-3.14;81.38;99853.00;5050672;28;21003;-70
2022/12/15 09:18:44;;;;;;;26.40;11.00;;;;;;;-3.08;80.95;99871.47;5061949;28;20476;-68
2022/12/15 09:21:11;;;;;;;28.07;10.97;;;;;;;-3.03;81.43;99885.59;5042083;28;20493;-66
2022/12/15 09:23:39;;;;;;;36.87;16.90;;;;;;;-2.93;80.46;99890.50;5055047;28;20464;-67
2022/12/15 09:26:08;;;;;;;31.43;12.57;;;;;;;-2.96;80.89;99897.19;5073952;28;20512;-70
2022/12/15 09:28:36;;;;;;;30.33;11.87;;;;;;;-2.89;80.75;99897.63;5061379;28;20510;-67
2022/12/15 09:31:05;;;;;;;32.97;12.27;;;;;;;-2.78;80.90;99907.75;5060573;28;20534;-67
2022/12/15 09:33:31;;;;;;;32.03;12.70;;;;;;;-2.70;80.35;99898.72;5062692;28;20487;-68
2022/12/15 09:35:59;;;;;;;26.73;11.00;;;;;;;-2.79;78.90;99908.56;5066333;28;20483;-67
2022/12/15 09:38:25;;;;;;;25.93;11.50;;;;;;;-2.90;79.16;99903.63;5066929;28;20734;-68
2022/12/15 09:40:52;;;;;;;25.03;10.60;;;;;;;-2.88;79.75;99903.72;5064537;28;20298;-67
2022/12/15 09:43:23;;;;;;;27.23;11.30;;;;;;;-2.84;79.67;99906.56;5064761;28;20214;-68
2022/12/15 09:46:47;;;;;;;24.17;10.00;;;;;;;-2.67;79.33;99898.88;5063968;28;20444;-68
2022/12/15 09:49:40;;;;;;;28.53;11.30;;;;;;;-2.55;78.41;99890.09;5062787;28;20190;-68
2022/12/15 09:52:21;;;;;;;26.23;10.97;;;;;;;-2.48;78.62;99877.50;5063208;28;21066;-66
2022/12/15 09:54:47;;;;;;;29.80;11.57;;;;;;;-2.40;76.88;99887.50;5068280;28;20252;-68
2022/12/15 09:57:28;;;;;;;28.30;11.40;;;;;;;-2.32;76.95;99887.94;5067126;28;20218;-67
2022/12/15 10:00:24;;;;;;;29.63;12.57;;;;;;;-2.36;77.23;99883.38;5066881;28;20697;-67
2022/12/15 10:03:18;;;;;;;27.80;12.13;;;;;;;-2.26;76.75;99896.03;5059190;28;20297;-67
2022/12/15 10:06:00;;;;;;;29.27;11.40;;;;;;;-2.42;76.89;99901.16;5063659;28;20202;-67
2022/12/15 10:08:57;;;;;;;30.43;11.40;;;;;;;-2.39;76.82;99897.06;5063871;28;20201;-66
2022/12/15 10:11:41;;;;;;;29.30;11.37;;;;;;;-2.45;77.49;99894.09;5067782;28;20694;-67
2022/12/15 10:14:29;;;;;;;26.10;11.40;;;;;;;-2.55;77.90;99902.16;5066733;28;20733;-67
2022/12/15 10:17:05;;;;;;;28.60;12.40;;;;;;;-2.61;78.21;99897.53;5064636;28;20304;-70
2022/12/15 10:19:49;;;;;;;29.13;11.33;;;;;;;-2.85;78.62;99897.00;5060718;28;20203;-69
2022/12/15 10:22:22;;;;;;;27.00;10.73;;;;;;;-3.01;79.35;99903.81;5063032;28;20481;-67
2022/12/15 10:24:48;;;;;;;34.47;16.83;;;;;;;-3.10;80.10;99898.09;5064980;28;20479;-70
2022/12/15 10:27:38;;;;;;;30.23;12.40;;;;;;;-3.09;80.52;99900.78;5064664;28;20444;-67
2022/12/15 10:30:08;;;;;;;30.63;12.50;;;;;;;-2.90;81.50;99897.53;5064510;28;20460;-67
2022/12/15 10:33:10;;;;;;;32.23;13.67;;;;;;;-2.69;80.69;99898.81;5063385;28;20481;-67
2022/12/15 10:35:38;;;;;;;31.13;12.90;;;;;;;-2.40;80.91;99891.78;5065414;28;20190;-67
2022/12/15 10:38:20;;;;;;;36.67;13.60;;;;;;;-2.22;79.35;99891.13;5057750;28;20305;-67
2022/12/15 10:40:57;;;;;;;26.93;12.83;;;;;;;-2.08;77.80;99889.28;5069767;28;20218;-67
2022/12/15 10:43:32;;;;;;;32.17;14.07;;;;;;;-2.07;77.61;99895.34;5063083;28;20697;-69
2022/12/15 10:46:12;;;;;;;29.53;13.13;;;;;;;-1.94;76.94;99897.84;5058043;28;20596;-68
2022/12/15 10:48:42;;;;;;;31.13;14.10;;;;;;;-1.92;75.77;99884.13;5073911;28;20240;-67
2022/12/15 10:51:17;;;;;;;29.67;13.27;;;;;;;-2.14;75.95;99878.56;5056012;28;20202;-66
2022/12/15 10:53:59;;;;;;;28.67;12.80;;;;;;;-2.28;76.87;99879.50;5064406;28;20224;-66
2022/12/15 10:56:27;;;;;;;30.17;13.03;;;;;;;-2.37;77.51;99877.31;5077393;28;20225;-69
2022/12/15 10:59:03;;;;;;;32.87;12.27;;;;;;;-2.51;77.80;99870.44;5065110;28;20199;-66
2022/12/15 11:01:32;;;;;;;31.67;12.87;;;;;;;-2.61;78.79;99871.63;5067111;28;20220;-66
2022/12/15 11:03:59;;;;;;;29.93;13.23;;;;;;;-2.74;78.84;99863.97;5075423;28;20197;-67
2022/12/15 11:06:30;;;;;;;32.57;12.33;;;;;;;-2.85;79.52;99873.69;5062430;28;20632;-66
2022/12/15 11:09:25;;;;;;;31.53;12.90;;;;;;;-2.84;79.79;99872.00;5052229;28;20222;-66
2022/12/15 11:14:48;;;;;;;29.47;11.40;;;;;;;-3.00;79.80;99870.22;5075871;28;20569;-69
2022/12/15 11:17:19;;;;;;;30.23;12.77;;;;;;;-3.00;80.15;99865.03;5060202;28;20210;-67
2022/12/15 11:19:45;;;;;;;27.10;12.53;;;;;;;-2.99;80.68;99858.16;5061314;28;20238;-66
2022/12/15 11:22:20;;;;;;;30.73;13.20;;;;;;;-2.84;80.84;99856.44;5060193;28;20214;-69
2022/12/15 11:24:51;;;;;;;31.37;14.07;;;;;;;-2.73;80.06;99846.72;5060162;28;20190;-66
2022/12/15 11:27:27;;;;;;;33.20;13.73;;;;;;;-2.53;79.18;99835.75;5066327;28;20217;-68
2022/12/15 11:30:02;;;;;;;29.47;13.90;;;;;;;-2.33;78.99;99830.00;5063037;28;20276;-67
2022/12/15 11:32:33;;;;;;;29.90;13.17;;;;;;;-2.22;78.31;99823.69;5056187;28;20276;-67
2022/12/15 11:35:00;;;;;;;28.60;12.97;;;;;;;-2.10;78.21;99812.19;5060672;28;20738;-68
2022/12/15 11:37:34;;;;;;;29.30;13.37;;;;;;;-2.05;77.93;99814.22;5067503;28;20198;-67
2022/12/15 11:40:40;;;;;;;32.43;14.20;;;;;;;-1.99;77.09;99811.06;5063109;28;20599;-67
2022/12/15 11:43:36;;;;;;;28.13;12.73;;;;;;;-1.94;77.07;99804.44;5061019;28;20210;-66
2022/12/15 11:46:20;;;;;;;30.97;13.77;;;;;;;-1.89;77.21;99800.38;5057358;28;20257;-65
2022/12/15 11:49:04;;;;;;;28.70;13.57;;;;;;;-1.84;76.57;99808.38;5070424;28;20197;-68
2022/12/15 11:51:49;;;;;;;32.77;14.60;;;;;;;-1.92;76.54;99803.69;5064867;28;20218;-70
2022/12/15 11:54:30;;;;;;;28.87;13.03;;;;;;;-1.88;77.17;99812.53;5064584;28;20618;-67
2022/12/15 11:57:13;;;;;;;30.93;14.10;;;;;;;-1.80;77.02;99807.75;5055994;28;20247;-66
2022/12/15 12:00:09;;;;;;;29.43;14.03;;;;;;;-1.71;76.99;99806.50;5063848;28;20199;-66
2022/12/15 12:02:44;;;;;;;33.17;14.87;;;;;;;-1.62;76.60;99800.91;5060987;28;20659;-66
2022/12/15 12:05:47;;;;;;;32.10;13.93;;;;;;;-1.60;76.14;99799.31;5057621;28;20207;-68
2022/12/15 12:08:49;;;;;;;31.53;13.70;;;;;;;-1.56;76.20;99800.34;5043091;28;20194;-67
2022/12/15 12:11:31;;;;;;;30.43;15.50;;;;;;;-1.52;76.38;99798.00;5045455;28;20199;-70
2022/12/15 12:14:14;;;;;;;32.97;14.87;;;;;;;-1.37;76.18;99793.56;5063756;28;20202;-67
2022/12/15 12:16:46;;;;;;;34.53;15.87;;;;;;;-1.33;76.45;99785.09;5063214;28;20294;-70
2022/12/15 12:19:41;;;;;;;31.60;14.97;;;;;;;-1.22;75.81;99780.44;5065168;28;20224;-67
2022/12/15 12:22:20;;;;;;;36.90;16.70;;;;;;;-1.19;75.33;99767.63;5044995;28;20248;-67
2022/12/15 12:24:53;;;;;;;31.00;14.73;;;;;;;-1.08;74.97;99762.97;5063569;28;20753;-68
2022/12/15 12:27:54;;;;;;;35.47;15.83;;;;;;;-1.00;75.28;99751.22;5051539;28;20198;-67
2022/12/15 12:30:24;;;;;;;30.10;15.57;;;;;;;-0.90;75.13;99745.66;5063084;28;20216;-67
2022/12/15 12:33:21;;;;;;;30.63;15.33;;;;;;;-0.84;75.35;99739.84;5064414;28;20220;-68
2022/12/15 12:35:54;;;;;;;32.43;14.53;;;;;;;-0.80;74.41;99728.78;5064877;28;20231;-69
2022/12/15 12:38:29;;;;;;;28.93;14.57;;;;;;;-0.73;72.94;99726.56;5062760;28;20724;-67
2022/12/15 12:41:15;;;;;;;32.53;16.30;;;;;;;-0.65;72.78;99726.94;5071073;28;20277;-69
2022/12/15 12:43:50;;;;;;;33.23;16.10;;;;;;;-0.69;73.59;99712.91;5062705;28;20201;-67
2022/12/15 12:46:39;;;;;;;28.10;13.90;;;;;;;-0.53;73.55;99716.19;5069011;28;20213;-67
2022/12/15 12:49:12;;;;;;;35.57;16.73;;;;;;;-0.45;72.51;99702.72;5067241;28;20293;-67
2022/12/15 12:51:40;;;;;;;34.93;15.67;;;;;;;-0.38;72.00;99707.41;5066180;28;20231;-68
2022/12/15 12:54:35;;;;;;;31.00;14.70;;;;;;;-0.37;71.98;99692.69;5069054;28;20250;-67
2022/12/15 12:57:10;;;;;;;27.80;13.63;;;;;;;-0.47;72.20;99698.28;5064591;28;20201;-68
2022/12/15 12:59:55;;;;;;;31.33;15.53;;;;;;;-0.59;72.56;99695.13;5068266;28;20210;-66
2022/12/15 13:02:24;;;;;;;33.37;15.07;;;;;;;-0.58;72.96;99691.69;5060361;28;20219;-69
2022/12/15 13:04:56;;;;;;;33.80;16.13;;;;;;;-0.58;73.34;99689.09;5068223;28;20220;-69
2022/12/15 13:07:39;;;;;;;31.40;14.17;;;;;;;-0.66;73.32;99674.03;5058419;28;20202;-69
2022/12/15 13:10:20;;;;;;;32.30;15.23;;;;;;;-0.75;73.99;99675.31;5070731;28;20195;-67
2022/12/15 13:12:50;;;;;;;33.40;15.53;;;;;;;-0.77;74.64;99662.25;5064634;28;20233;-68
2022/12/15 13:15:27;;;;;;;30.27;15.67;;;;;;;-0.76;75.56;99670.94;5063117;28;20198;-68
2022/12/15 13:18:03;;;;;;;33.33;14.67;;;;;;;-0.77;75.42;99669.16;5069627;28;20298;-68
2022/12/15 13:20:32;;;;;;;32.57;14.57;;;;;;;-0.84;74.94;99667.97;5064989;28;20228;-67
2022/12/15 13:23:22;;;;;;;31.10;13.63;;;;;;;-0.84;75.73;99667.97;5072401;28;20764;-67
2022/12/15 13:25:52;;;;;;;34.87;14.80;;;;;;;-0.87;76.39;99669.53;5062568;28;20191;-70
2022/12/15 13:28:41;;;;;;;30.67;14.30;;;;;;;-0.98;76.22;99669.94;5055983;28;20717;-67
2022/12/15 13:31:40;;;;;;;30.97;14.67;;;;;;;-1.09;76.84;99668.53;5061091;28;20324;-68
2022/12/15 13:34:17;;;;;;;31.20;13.90;;;;;;;-1.17;77.30;99662.09;5071393;28;20189;-68
2022/12/15 13:36:45;;;;;;;34.03;14.37;;;;;;;-1.32;77.49;99650.94;5065377;28;20195;-67
2022/12/15 13:39:33;;;;;;;36.17;15.33;;;;;;;-1.35;77.82;99656.00;5065982;28;20216;-68
2022/12/15 13:42:00;;;;;;;31.20;14.13;;;;;;;-1.44;77.55;99655.56;5067706;28;20213;-67
2022/12/15 13:44:50;;;;;;;26.00;12.40;;;;;;;-1.52;77.73;99655.19;5073627;28;20207;-66
2022/12/15 13:47:27;;;;;;;29.87;12.47;;;;;;;-1.59;77.88;99647.94;5073693;28;20285;-67
2022/12/15 13:49:59;;;;;;;25.73;12.40;;;;;;;-1.67;78.45;99639.72;5071768;28;20247;-69
2022/12/15 13:52:37;;;;;;;33.43;13.47;;;;;;;-1.80;78.81;99637.34;5070955;28;20222;-67
2022/12/15 13:55:31;;;;;;;30.50;12.20;;;;;;;-1.92;79.60;99635.03;5069650;28;20646;-66
2022/12/15 13:58:19;;;;;;;33.23;12.97;;;;;;;-2.03;80.55;99640.47;5062477;28;20768;-67
2022/12/15 14:01:00;;;;;;;32.23;12.73;;;;;;;-2.12;80.76;99645.22;5073335;28;20665;-69
2022/12/15 14:03:26;;;;;;;30.40;13.37;;;;;;;-2.26;81.42;99639.31;5064826;28;20213;-68
2022/12/15 14:05:57;;;;;;;38.27;14.23;;;;;;;-2.35;81.72;99639.75;5043980;28;20203;-67
2022/12/15 14:08:28;;;;;;;32.13;12.97;;;;;;;-2.45;82.14;99627.09;5063782;28;20194;-64
2022/12/15 14:10:57;;;;;;;35.53;14.97;;;;;;;-2.52;82.72;99636.25;5071709;28;20614;-67
2022/12/15 14:13:27;;;;;;;33.13;13.70;;;;;;;-2.54;83.00;99649.94;5064858;28;20740;-68